General Aviation Weather

Text Reports

Enter one or more of the following location identifiers separated by a space:

Zip Code, Four-Character ICAO or Three-Character IATA airport codes.

METAR - Aviation Routine Weather Report
KEMP - Emporia, Kansas
Updated at 9:53 PM GMT on August 27, 2016 (4:53 PM CDT):
METAR KEMP 272153Z AUTO 00000KT 10SM CLR 29/22 A2998 RMK AO2 LTG DSNT SE-SW SLP144 T02890222
TAF - Terminal Area Forecast
KEMP - Emporia, Kansas
Updated at 9:53 PM GMT on August 27, 2016 (4:53 PM CDT):
No TAF is currently available for this location.
Decoded:
No decoded TAF is available.
PIREP - Pilot Weather Report
KEMP - Emporia, Kansas
Updated at 9:53 PM GMT on August 27, 2016 (4:53 PM CDT):
No PIREP is currently available for this location.
AIRMET - Airmens Meteorological Information
KEMP - Emporia, Kansas
Updated at 9:53 PM GMT on August 27, 2016 (4:53 PM CDT):
No AIRMET is currently available for this location.
SIGMET - Significant Meteorological Information
KEMP - Emporia, Kansas
Updated at 9:53 PM GMT on August 27, 2016 (4:53 PM CDT):
No SIGMET is currently available for this location.
NOTAM - Notice to Airmen
KEMP - Emporia, Kansas
Updated at 9:53 PM GMT on August 27, 2016 (4:53 PM CDT):
No NOTAM is currently available for this location.
Forecast Area
KEMP - Emporia, Kansas
Updated at 9:53 PM GMT on August 27, 2016 (4:53 PM CDT):
No NOTAM is currently available for this location.
Aviation Weather Maps